sensor_id;sensor_type;location;lat;lon;timestamp;P1;P2;P0
76421;PMS5003;65254;52.354;13.614;2023-02-11T00:00:00;34;30;
76421;PMS5003;65254;52.354;13.614;2023-02-11T00:04:01;34;30;
76421;PMS5003;65254;52.354;13.614;2023-02-11T00:08:00;34;30;
76421;PMS5003;65254;52.354;13.614;2023-02-11T00:12:00;34;30;
76421;PMS5003;65254;52.354;13.614;2023-02-11T00:16:04;33;29;
76421;PMS5003;65254;52.354;13.614;2023-02-11T00:20:00;32;29;
76421;PMS5003;65254;52.354;13.614;2023-02-11T00:24:00;32;29;
76421;PMS5003;65254;52.354;13.614;2023-02-11T00:28:00;32;28;
76421;PMS5003;65254;52.354;13.614;2023-02-11T00:32:00;32;29;
76421;PMS5003;65254;52.354;13.614;2023-02-11T00:36:02;33;29;
76421;PMS5003;65254;52.354;13.614;2023-02-11T00:40:00;34;30;
76421;PMS5003;65254;52.354;13.614;2023-02-11T00:44:01;33;29;
76421;PMS5003;65254;52.354;13.614;2023-02-11T00:48:00;33;29;
76421;PMS5003;65254;52.354;13.614;2023-02-11T00:52:00;33;29;
76421;PMS5003;65254;52.354;13.614;2023-02-11T00:56:00;32;29;
76421;PMS5003;65254;52.354;13.614;2023-02-11T01:00:00;30;27;
76421;PMS5003;65254;52.354;13.614;2023-02-11T01:04:00;31;28;
76421;PMS5003;65254;52.354;13.614;2023-02-11T01:08:00;31;28;
76421;PMS5003;65254;52.354;13.614;2023-02-11T01:12:00;32;29;
76421;PMS5003;65254;52.354;13.614;2023-02-11T01:16:01;31;28;
76421;PMS5003;65254;52.354;13.614;2023-02-11T01:20:01;31;28;
76421;PMS5003;65254;52.354;13.614;2023-02-11T01:24:00;31;28;
76421;PMS5003;65254;52.354;13.614;2023-02-11T01:28:00;31;27;
76421;PMS5003;65254;52.354;13.614;2023-02-11T01:32:00;32;28;
76421;PMS5003;65254;52.354;13.614;2023-02-11T01:36:01;31;28;
76421;PMS5003;65254;52.354;13.614;2023-02-11T01:40:00;31;28;
76421;PMS5003;65254;52.354;13.614;2023-02-11T01:48:00;31;28;
76421;PMS5003;65254;52.354;13.614;2023-02-11T01:52:03;32;29;
76421;PMS5003;65254;52.354;13.614;2023-02-11T01:56:01;31;28;
76421;PMS5003;65254;52.354;13.614;2023-02-11T02:00:06;32;28;
76421;PMS5003;65254;52.354;13.614;2023-02-11T02:04:02;31;28;
76421;PMS5003;65254;52.354;13.614;2023-02-11T02:08:04;32;29;
76421;PMS5003;65254;52.354;13.614;2023-02-11T02:12:00;32;29;
76421;PMS5003;65254;52.354;13.614;2023-02-11T02:16:03;31;28;
76421;PMS5003;65254;52.354;13.614;2023-02-11T02:20:15;32;28;
76421;PMS5003;65254;52.354;13.614;2023-02-11T02:24:07;32;29;
76421;PMS5003;65254;52.354;13.614;2023-02-11T02:28:07;32;28;
76421;PMS5003;65254;52.354;13.614;2023-02-11T02:32:18;31;28;
76421;PMS5003;65254;52.354;13.614;2023-02-11T02:36:08;33;29;
76421;PMS5003;65254;52.354;13.614;2023-02-11T02:40:04;34;30;
76421;PMS5003;65254;52.354;13.614;2023-02-11T02:44:01;32;28;
76421;PMS5003;65254;52.354;13.614;2023-02-11T02:48:00;32;29;
76421;PMS5003;65254;52.354;13.614;2023-02-11T02:52:15;34;30;
76421;PMS5003;65254;52.354;13.614;2023-02-11T02:56:04;32;29;
76421;PMS5003;65254;52.354;13.614;2023-02-11T03:00:07;32;29;
76421;PMS5003;65254;52.354;13.614;2023-02-11T03:04:05;31;28;
76421;PMS5003;65254;52.354;13.614;2023-02-11T03:08:05;32;29;
76421;PMS5003;65254;52.354;13.614;2023-02-11T03:12:01;31;28;
76421;PMS5003;65254;52.354;13.614;2023-02-11T03:16:06;32;29;
76421;PMS5003;65254;52.354;13.614;2023-02-11T03:20:02;33;29;
76421;PMS5003;65254;52.354;13.614;2023-02-11T03:24:04;32;29;
76421;PMS5003;65254;52.354;13.614;2023-02-11T03:28:05;31;28;
76421;PMS5003;65254;52.354;13.614;2023-02-11T03:32:04;31;28;
76421;PMS5003;65254;52.354;13.614;2023-02-11T03:36:03;35;31;
76421;PMS5003;65254;52.354;13.614;2023-02-11T03:40:04;34;30;
76421;PMS5003;65254;52.354;13.614;2023-02-11T03:44:01;32;29;
76421;PMS5003;65254;52.354;13.614;2023-02-11T03:48:04;34;30;
76421;PMS5003;65254;52.354;13.614;2023-02-11T03:52:01;32;29;
76421;PMS5003;65254;52.354;13.614;2023-02-11T03:56:04;34;30;
76421;PMS5003;65254;52.354;13.614;2023-02-11T04:00:00;34;30;
76421;PMS5003;65254;52.354;13.614;2023-02-11T04:04:00;33;29;
76421;PMS5003;65254;52.354;13.614;2023-02-11T04:08:01;32;29;
76421;PMS5003;65254;52.354;13.614;2023-02-11T04:12:00;34;30;
76421;PMS5003;65254;52.354;13.614;2023-02-11T04:16:00;34;30;
76421;PMS5003;65254;52.354;13.614;2023-02-11T04:20:00;33;29;
76421;PMS5003;65254;52.354;13.614;2023-02-11T04:24:00;35;31;
76421;PMS5003;65254;52.354;13.614;2023-02-11T04:28:00;34;30;
76421;PMS5003;65254;52.354;13.614;2023-02-11T04:32:01;33;29;
76421;PMS5003;65254;52.354;13.614;2023-02-11T04:36:00;35;31;
76421;PMS5003;65254;52.354;13.614;2023-02-11T04:40:00;34;30;
76421;PMS5003;65254;52.354;13.614;2023-02-11T04:44:01;35;31;
76421;PMS5003;65254;52.354;13.614;2023-02-11T04:48:01;32;29;
76421;PMS5003;65254;52.354;13.614;2023-02-11T04:52:00;34;30;
76421;PMS5003;65254;52.354;13.614;2023-02-11T04:56:00;33;29;
76421;PMS5003;65254;52.354;13.614;2023-02-11T05:00:01;34;30;
76421;PMS5003;65254;52.354;13.614;2023-02-11T05:04:01;35;31;
76421;PMS5003;65254;52.354;13.614;2023-02-11T05:08:00;35;31;
76421;PMS5003;65254;52.354;13.614;2023-02-11T05:12:00;35;31;
76421;PMS5003;65254;52.354;13.614;2023-02-11T05:16:00;36;32;
76421;PMS5003;65254;52.354;13.614;2023-02-11T05:20:00;36;32;
76421;PMS5003;65254;52.354;13.614;2023-02-11T05:24:00;35;31;
76421;PMS5003;65254;52.354;13.614;2023-02-11T05:28:01;35;31;
76421;PMS5003;65254;52.354;13.614;2023-02-11T05:32:00;36;32;
76421;PMS5003;65254;52.354;13.614;2023-02-11T05:36:03;37;33;
76421;PMS5003;65254;52.354;13.614;2023-02-11T05:40:00;35;31;
76421;PMS5003;65254;52.354;13.614;2023-02-11T05:44:00;36;32;
76421;PMS5003;65254;52.354;13.614;2023-02-11T05:48:00;37;33;
76421;PMS5003;65254;52.354;13.614;2023-02-11T05:52:00;35;31;
76421;PMS5003;65254;52.354;13.614;2023-02-11T05:56:01;37;33;
76421;PMS5003;65254;52.354;13.614;2023-02-11T06:00:01;40;36;
76421;PMS5003;65254;52.354;13.614;2023-02-11T06:04:00;38;34;
76421;PMS5003;65254;52.354;13.614;2023-02-11T06:08:00;39;35;
76421;PMS5003;65254;52.354;13.614;2023-02-11T06:12:00;36;32;
76421;PMS5003;65254;52.354;13.614;2023-02-11T06:16:01;38;34;
76421;PMS5003;65254;52.354;13.614;2023-02-11T06:20:01;39;35;
76421;PMS5003;65254;52.354;13.614;2023-02-11T06:24:00;38;34;
76421;PMS5003;65254;52.354;13.614;2023-02-11T06:28:00;37;33;
76421;PMS5003;65254;52.354;13.614;2023-02-11T06:32:00;39;35;
76421;PMS5003;65254;52.354;13.614;2023-02-11T06:36:00;41;37;
76421;PMS5003;65254;52.354;13.614;2023-02-11T06:40:00;38;34;
76421;PMS5003;65254;52.354;13.614;2023-02-11T06:44:00;39;35;
76421;PMS5003;65254;52.354;13.614;2023-02-11T06:48:00;39;35;
76421;PMS5003;65254;52.354;13.614;2023-02-11T06:52:00;39;35;
76421;PMS5003;65254;52.354;13.614;2023-02-11T06:56:02;41;36;
76421;PMS5003;65254;52.354;13.614;2023-02-11T07:00:00;40;36;
76421;PMS5003;65254;52.354;13.614;2023-02-11T07:04:00;39;35;
76421;PMS5003;65254;52.354;13.614;2023-02-11T07:08:00;39;35;
76421;PMS5003;65254;52.354;13.614;2023-02-11T07:12:00;41;37;
76421;PMS5003;65254;52.354;13.614;2023-02-11T07:16:02;40;36;
76421;PMS5003;65254;52.354;13.614;2023-02-11T07:20:00;39;34;
76421;PMS5003;65254;52.354;13.614;2023-02-11T07:24:01;38;34;
76421;PMS5003;65254;52.354;13.614;2023-02-11T07:28:00;41;36;
76421;PMS5003;65254;52.354;13.614;2023-02-11T07:32:00;42;37;
76421;PMS5003;65254;52.354;13.614;2023-02-11T07:36:01;41;37;
76421;PMS5003;65254;52.354;13.614;2023-02-11T07:40:00;39;35;
76421;PMS5003;65254;52.354;13.614;2023-02-11T07:44:01;42;37;
76421;PMS5003;65254;52.354;13.614;2023-02-11T07:48:00;39;34;
76421;PMS5003;65254;52.354;13.614;2023-02-11T07:52:00;39;35;
76421;PMS5003;65254;52.354;13.614;2023-02-11T07:56:01;40;36;
76421;PMS5003;65254;52.354;13.614;2023-02-11T08:00:00;39;35;
76421;PMS5003;65254;52.354;13.614;2023-02-11T08:04:01;40;35;
76421;PMS5003;65254;52.354;13.614;2023-02-11T08:08:00;38;34;
76421;PMS5003;65254;52.354;13.614;2023-02-11T08:12:00;38;34;
76421;PMS5003;65254;52.354;13.614;2023-02-11T08:16:01;37;33;
76421;PMS5003;65254;52.354;13.614;2023-02-11T08:20:01;38;34;
76421;PMS5003;65254;52.354;13.614;2023-02-11T08:24:01;37;33;
76421;PMS5003;65254;52.354;13.614;2023-02-11T08:28:01;39;34;
76421;PMS5003;65254;52.354;13.614;2023-02-11T08:32:01;38;34;
76421;PMS5003;65254;52.354;13.614;2023-02-11T08:36:01;38;34;
76421;PMS5003;65254;52.354;13.614;2023-02-11T08:40:00;37;33;
76421;PMS5003;65254;52.354;13.614;2023-02-11T08:44:01;36;32;
76421;PMS5003;65254;52.354;13.614;2023-02-11T08:48:00;35;31;
76421;PMS5003;65254;52.354;13.614;2023-02-11T08:52:00;36;32;
76421;PMS5003;65254;52.354;13.614;2023-02-11T08:56:00;35;31;
76421;PMS5003;65254;52.354;13.614;2023-02-11T09:00:00;34;30;
76421;PMS5003;65254;52.354;13.614;2023-02-11T09:04:00;34;30;
76421;PMS5003;65254;52.354;13.614;2023-02-11T09:08:00;35;31;
76421;PMS5003;65254;52.354;13.614;2023-02-11T09:12:00;34;30;
76421;PMS5003;65254;52.354;13.614;2023-02-11T09:16:02;34;30;
76421;PMS5003;65254;52.354;13.614;2023-02-11T09:20:00;34;30;
76421;PMS5003;65254;52.354;13.614;2023-02-11T09:24:00;35;31;
76421;PMS5003;65254;52.354;13.614;2023-02-11T09:28:00;33;29;
76421;PMS5003;65254;52.354;13.614;2023-02-11T09:32:01;34;30;
76421;PMS5003;65254;52.354;13.614;2023-02-11T09:36:01;32;29;
76421;PMS5003;65254;52.354;13.614;2023-02-11T09:40:00;33;29;
76421;PMS5003;65254;52.354;13.614;2023-02-11T09:44:02;33;29;
76421;PMS5003;65254;52.354;13.614;2023-02-11T09:48:04;34;30;
76421;PMS5003;65254;52.354;13.614;2023-02-11T09:52:04;34;30;
76421;PMS5003;65254;52.354;13.614;2023-02-11T09:56:08;33;29;
76421;PMS5003;65254;52.354;13.614;2023-02-11T10:00:06;31;28;
76421;PMS5003;65254;52.354;13.614;2023-02-11T10:04:03;30;27;
76421;PMS5003;65254;52.354;13.614;2023-02-11T10:08:07;31;28;
76421;PMS5003;65254;52.354;13.614;2023-02-11T10:12:13;31;28;
76421;PMS5003;65254;52.354;13.614;2023-02-11T10:16:08;30;27;
76421;PMS5003;65254;52.354;13.614;2023-02-11T10:20:07;31;27;
76421;PMS5003;65254;52.354;13.614;2023-02-11T10:24:04;31;27;
76421;PMS5003;65254;52.354;13.614;2023-02-11T10:28:10;31;28;
76421;PMS5003;65254;52.354;13.614;2023-02-11T10:32:04;31;27;
76421;PMS5003;65254;52.354;13.614;2023-02-11T10:36:01;31;28;
76421;PMS5003;65254;52.354;13.614;2023-02-11T10:40:00;29;26;
76421;PMS5003;65254;52.354;13.614;2023-02-11T10:44:00;30;27;
76421;PMS5003;65254;52.354;13.614;2023-02-11T10:48:02;29;26;
76421;PMS5003;65254;52.354;13.614;2023-02-11T10:52:13;30;27;
76421;PMS5003;65254;52.354;13.614;2023-02-11T10:56:01;29;26;
76421;PMS5003;65254;52.354;13.614;2023-02-11T11:00:04;29;26;
76421;PMS5003;65254;52.354;13.614;2023-02-11T11:04:00;30;27;
76421;PMS5003;65254;52.354;13.614;2023-02-11T11:08:03;29;26;
76421;PMS5003;65254;52.354;13.614;2023-02-11T11:12:00;29;26;
76421;PMS5003;65254;52.354;13.614;2023-02-11T11:16:14;30;27;
76421;PMS5003;65254;52.354;13.614;2023-02-11T11:20:15;29;26;
76421;PMS5003;65254;52.354;13.614;2023-02-11T11:24:02;28;25;
76421;PMS5003;65254;52.354;13.614;2023-02-11T11:28:00;29;26;
76421;PMS5003;65254;52.354;13.614;2023-02-11T11:32:02;29;26;
76421;PMS5003;65254;52.354;13.614;2023-02-11T11:36:03;29;26;
76421;PMS5003;65254;52.354;13.614;2023-02-11T11:40:07;28;25;
76421;PMS5003;65254;52.354;13.614;2023-02-11T11:44:03;28;25;
76421;PMS5003;65254;52.354;13.614;2023-02-11T11:48:03;27;24;
76421;PMS5003;65254;52.354;13.614;2023-02-11T11:52:18;25;22;
76421;PMS5003;65254;52.354;13.614;2023-02-11T11:56:03;24;22;
76421;PMS5003;65254;52.354;13.614;2023-02-11T12:00:00;23;21;
76421;PMS5003;65254;52.354;13.614;2023-02-11T12:08:08;24;22;
76421;PMS5003;65254;52.354;13.614;2023-02-11T12:12:07;23;21;
76421;PMS5003;65254;52.354;13.614;2023-02-11T12:16:10;23;21;
76421;PMS5003;65254;52.354;13.614;2023-02-11T12:20:12;23;21;
76421;PMS5003;65254;52.354;13.614;2023-02-11T12:24:11;23;21;
76421;PMS5003;65254;52.354;13.614;2023-02-11T12:28:06;21;19;
76421;PMS5003;65254;52.354;13.614;2023-02-11T12:32:07;21;19;
76421;PMS5003;65254;52.354;13.614;2023-02-11T12:36:04;21;19;
76421;PMS5003;65254;52.354;13.614;2023-02-11T12:40:11;22;20;
76421;PMS5003;65254;52.354;13.614;2023-02-11T12:44:01;22;20;
76421;PMS5003;65254;52.354;13.614;2023-02-11T12:48:11;21;19;
76421;PMS5003;65254;52.354;13.614;2023-02-11T12:52:09;22;20;
76421;PMS5003;65254;52.354;13.614;2023-02-11T12:56:04;21;19;
76421;PMS5003;65254;52.354;13.614;2023-02-11T13:00:05;20;18;
76421;PMS5003;65254;52.354;13.614;2023-02-11T13:04:05;20;18;
76421;PMS5003;65254;52.354;13.614;2023-02-11T13:08:03;18;16;
76421;PMS5003;65254;52.354;13.614;2023-02-11T13:12:02;19;17;
76421;PMS5003;65254;52.354;13.614;2023-02-11T13:16:02;20;18;
76421;PMS5003;65254;52.354;13.614;2023-02-11T13:20:06;21;19;
76421;PMS5003;65254;52.354;13.614;2023-02-11T13:24:08;19;17;
76421;PMS5003;65254;52.354;13.614;2023-02-11T13:28:08;19;17;
76421;PMS5003;65254;52.354;13.614;2023-02-11T13:32:06;19;17;
76421;PMS5003;65254;52.354;13.614;2023-02-11T13:36:15;18;16;
76421;PMS5003;65254;52.354;13.614;2023-02-11T13:40:02;19;17;
76421;PMS5003;65254;52.354;13.614;2023-02-11T13:44:04;18;16;
76421;PMS5003;65254;52.354;13.614;2023-02-11T13:48:02;19;17;
76421;PMS5003;65254;52.354;13.614;2023-02-11T13:52:03;18;16;
76421;PMS5003;65254;52.354;13.614;2023-02-11T13:56:08;19;17;
76421;PMS5003;65254;52.354;13.614;2023-02-11T14:00:08;17;15;
76421;PMS5003;65254;52.354;13.614;2023-02-11T14:04:18;19;17;
76421;PMS5003;65254;52.354;13.614;2023-02-11T14:08:12;18;16;
76421;PMS5003;65254;52.354;13.614;2023-02-11T14:16:03;17;15;
76421;PMS5003;65254;52.354;13.614;2023-02-11T14:20:02;18;16;
76421;PMS5003;65254;52.354;13.614;2023-02-11T14:28:07;17;15;
76421;PMS5003;65254;52.354;13.614;2023-02-11T14:32:05;17;15;
76421;PMS5003;65254;52.354;13.614;2023-02-11T14:36:06;17;15;
76421;PMS5003;65254;52.354;13.614;2023-02-11T14:40:12;14;13;
76421;PMS5003;65254;52.354;13.614;2023-02-11T14:44:03;17;15;
76421;PMS5003;65254;52.354;13.614;2023-02-11T14:48:03;15;14;
76421;PMS5003;65254;52.354;13.614;2023-02-11T14:52:05;14;13;
76421;PMS5003;65254;52.354;13.614;2023-02-11T14:56:00;14;13;
76421;PMS5003;65254;52.354;13.614;2023-02-11T15:00:04;13;12;
76421;PMS5003;65254;52.354;13.614;2023-02-11T15:04:01;14;13;
76421;PMS5003;65254;52.354;13.614;2023-02-11T15:08:02;14;13;
76421;PMS5003;65254;52.354;13.614;2023-02-11T15:12:00;13;12;
76421;PMS5003;65254;52.354;13.614;2023-02-11T15:16:05;12;11;
76421;PMS5003;65254;52.354;13.614;2023-02-11T15:20:01;12;11;
76421;PMS5003;65254;52.354;13.614;2023-02-11T15:24:03;13;12;
76421;PMS5003;65254;52.354;13.614;2023-02-11T15:28:14;13;12;
76421;PMS5003;65254;52.354;13.614;2023-02-11T15:32:03;12;11;
76421;PMS5003;65254;52.354;13.614;2023-02-11T15:36:01;13;12;
76421;PMS5003;65254;52.354;13.614;2023-02-11T15:40:08;13;12;
76421;PMS5003;65254;52.354;13.614;2023-02-11T15:44:00;13;12;
76421;PMS5003;65254;52.354;13.614;2023-02-11T15:48:06;13;12;
76421;PMS5003;65254;52.354;13.614;2023-02-11T15:52:02;12;11;
76421;PMS5003;65254;52.354;13.614;2023-02-11T15:56:03;14;13;
76421;PMS5003;65254;52.354;13.614;2023-02-11T16:00:00;15;14;
76421;PMS5003;65254;52.354;13.614;2023-02-11T16:04:01;12;11;
76421;PMS5003;65254;52.354;13.614;2023-02-11T16:08:16;12;11;
76421;PMS5003;65254;52.354;13.614;2023-02-11T16:12:03;13;12;
76421;PMS5003;65254;52.354;13.614;2023-02-11T16:16:02;12;11;
76421;PMS5003;65254;52.354;13.614;2023-02-11T16:20:00;13;12;
76421;PMS5003;65254;52.354;13.614;2023-02-11T16:24:00;12;11;
76421;PMS5003;65254;52.354;13.614;2023-02-11T16:28:00;11;10;
76421;PMS5003;65254;52.354;13.614;2023-02-11T16:32:06;13;12;
76421;PMS5003;65254;52.354;13.614;2023-02-11T16:36:08;11;10;
76421;PMS5003;65254;52.354;13.614;2023-02-11T16:40:00;12;11;
76421;PMS5003;65254;52.354;13.614;2023-02-11T16:44:00;11;10;
76421;PMS5003;65254;52.354;13.614;2023-02-11T16:48:00;11;10;
76421;PMS5003;65254;52.354;13.614;2023-02-11T16:52:05;11;10;
76421;PMS5003;65254;52.354;13.614;2023-02-11T16:56:00;12;11;
76421;PMS5003;65254;52.354;13.614;2023-02-11T17:00:00;11;10;
76421;PMS5003;65254;52.354;13.614;2023-02-11T17:04:01;11;10;
76421;PMS5003;65254;52.354;13.614;2023-02-11T17:08:00;18;16;
76421;PMS5003;65254;52.354;13.614;2023-02-11T17:12:00;12;11;
76421;PMS5003;65254;52.354;13.614;2023-02-11T17:16:00;11;10;
76421;PMS5003;65254;52.354;13.614;2023-02-11T17:20:00;12;11;
76421;PMS5003;65254;52.354;13.614;2023-02-11T17:24:00;27;24;
76421;PMS5003;65254;52.354;13.614;2023-02-11T17:28:00;12;11;
76421;PMS5003;65254;52.354;13.614;2023-02-11T17:32:00;11;10;
76421;PMS5003;65254;52.354;13.614;2023-02-11T17:36:03;14;13;
76421;PMS5003;65254;52.354;13.614;2023-02-11T17:40:00;13;12;
76421;PMS5003;65254;52.354;13.614;2023-02-11T17:44:00;13;12;
76421;PMS5003;65254;52.354;13.614;2023-02-11T17:48:00;10;9;
76421;PMS5003;65254;52.354;13.614;2023-02-11T17:52:00;10;9;
76421;PMS5003;65254;52.354;13.614;2023-02-11T17:56:01;13;12;
76421;PMS5003;65254;52.354;13.614;2023-02-11T18:00:00;9;8;
76421;PMS5003;65254;52.354;13.614;2023-02-11T18:04:01;14;13;
76421;PMS5003;65254;52.354;13.614;2023-02-11T18:08:00;14;13;
76421;PMS5003;65254;52.354;13.614;2023-02-11T18:12:00;9;8;
76421;PMS5003;65254;52.354;13.614;2023-02-11T18:16:00;9;8;
76421;PMS5003;65254;52.354;13.614;2023-02-11T18:20:00;10;9;
76421;PMS5003;65254;52.354;13.614;2023-02-11T18:24:07;18;16;
76421;PMS5003;65254;52.354;13.614;2023-02-11T18:28:00;10;9;
76421;PMS5003;65254;52.354;13.614;2023-02-11T18:32:00;11;10;
76421;PMS5003;65254;52.354;13.614;2023-02-11T18:36:03;10;9;
76421;PMS5003;65254;52.354;13.614;2023-02-11T18:40:00;6;6;
76421;PMS5003;65254;52.354;13.614;2023-02-11T18:44:00;9;8;
76421;PMS5003;65254;52.354;13.614;2023-02-11T18:48:00;10;9;
76421;PMS5003;65254;52.354;13.614;2023-02-11T18:52:00;9;8;
76421;PMS5003;65254;52.354;13.614;2023-02-11T18:56:05;6;6;
76421;PMS5003;65254;52.354;13.614;2023-02-11T19:00:00;6;6;
76421;PMS5003;65254;52.354;13.614;2023-02-11T19:04:02;6;6;
76421;PMS5003;65254;52.354;13.614;2023-02-11T19:08:00;9;8;
76421;PMS5003;65254;52.354;13.614;2023-02-11T19:12:00;7;7;
76421;PMS5003;65254;52.354;13.614;2023-02-11T19:16:03;11;10;
76421;PMS5003;65254;52.354;13.614;2023-02-11T19:20:00;8;7;
76421;PMS5003;65254;52.354;13.614;2023-02-11T19:24:04;9;8;
76421;PMS5003;65254;52.354;13.614;2023-02-11T19:28:00;10;9;
76421;PMS5003;65254;52.354;13.614;2023-02-11T19:32:01;10;9;
76421;PMS5003;65254;52.354;13.614;2023-02-11T19:36:02;9;8;
76421;PMS5003;65254;52.354;13.614;2023-02-11T19:40:00;6;6;
76421;PMS5003;65254;52.354;13.614;2023-02-11T19:44:01;7;6;
76421;PMS5003;65254;52.354;13.614;2023-02-11T19:48:00;9;8;
76421;PMS5003;65254;52.354;13.614;2023-02-11T19:52:00;6;6;
76421;PMS5003;65254;52.354;13.614;2023-02-11T19:56:00;7;7;
76421;PMS5003;65254;52.354;13.614;2023-02-11T20:00:00;6;6;
76421;PMS5003;65254;52.354;13.614;2023-02-11T20:04:00;6;6;
76421;PMS5003;65254;52.354;13.614;2023-02-11T20:08:00;7;7;
76421;PMS5003;65254;52.354;13.614;2023-02-11T20:12:00;7;7;
76421;PMS5003;65254;52.354;13.614;2023-02-11T20:16:04;8;7;
76421;PMS5003;65254;52.354;13.614;2023-02-11T20:20:00;7;7;
76421;PMS5003;65254;52.354;13.614;2023-02-11T20:24:01;8;7;
76421;PMS5003;65254;52.354;13.614;2023-02-11T20:28:00;7;7;
76421;PMS5003;65254;52.354;13.614;2023-02-11T20:32:01;7;7;
76421;PMS5003;65254;52.354;13.614;2023-02-11T20:36:02;8;7;
76421;PMS5003;65254;52.354;13.614;2023-02-11T20:40:00;7;7;
76421;PMS5003;65254;52.354;13.614;2023-02-11T20:44:03;7;7;
76421;PMS5003;65254;52.354;13.614;2023-02-11T20:48:00;7;7;
76421;PMS5003;65254;52.354;13.614;2023-02-11T20:52:00;7;7;
76421;PMS5003;65254;52.354;13.614;2023-02-11T20:56:01;7;7;
76421;PMS5003;65254;52.354;13.614;2023-02-11T21:00:00;6;6;
76421;PMS5003;65254;52.354;13.614;2023-02-11T21:04:02;7;6;
76421;PMS5003;65254;52.354;13.614;2023-02-11T21:08:00;7;7;
76421;PMS5003;65254;52.354;13.614;2023-02-11T21:12:02;7;7;
76421;PMS5003;65254;52.354;13.614;2023-02-11T21:16:01;7;7;
76421;PMS5003;65254;52.354;13.614;2023-02-11T21:20:00;6;6;
76421;PMS5003;65254;52.354;13.614;2023-02-11T21:24:00;6;6;
76421;PMS5003;65254;52.354;13.614;2023-02-11T21:28:00;7;7;
76421;PMS5003;65254;52.354;13.614;2023-02-11T21:32:00;7;6;
76421;PMS5003;65254;52.354;13.614;2023-02-11T21:36:03;6;6;
76421;PMS5003;65254;52.354;13.614;2023-02-11T21:40:00;6;6;
76421;PMS5003;65254;52.354;13.614;2023-02-11T21:44:00;6;6;
76421;PMS5003;65254;52.354;13.614;2023-02-11T21:48:00;6;6;
76421;PMS5003;65254;52.354;13.614;2023-02-11T21:52:00;6;6;
76421;PMS5003;65254;52.354;13.614;2023-02-11T21:56:01;6;6;
76421;PMS5003;65254;52.354;13.614;2023-02-11T22:00:01;6;6;
76421;PMS5003;65254;52.354;13.614;2023-02-11T22:04:00;6;6;
76421;PMS5003;65254;52.354;13.614;2023-02-11T22:08:00;6;6;
76421;PMS5003;65254;52.354;13.614;2023-02-11T22:12:00;6;6;
76421;PMS5003;65254;52.354;13.614;2023-02-11T22:16:02;6;6;
76421;PMS5003;65254;52.354;13.614;2023-02-11T22:20:00;6;6;
76421;PMS5003;65254;52.354;13.614;2023-02-11T22:24:00;5;5;
76421;PMS5003;65254;52.354;13.614;2023-02-11T22:28:00;5;5;
76421;PMS5003;65254;52.354;13.614;2023-02-11T22:32:00;5;5;
76421;PMS5003;65254;52.354;13.614;2023-02-11T22:36:02;6;6;
76421;PMS5003;65254;52.354;13.614;2023-02-11T22:40:00;5;5;
76421;PMS5003;65254;52.354;13.614;2023-02-11T22:44:00;6;6;
76421;PMS5003;65254;52.354;13.614;2023-02-11T22:48:00;7;7;
76421;PMS5003;65254;52.354;13.614;2023-02-11T22:52:00;7;7;
76421;PMS5003;65254;52.354;13.614;2023-02-11T22:56:01;6;6;
76421;PMS5003;65254;52.354;13.614;2023-02-11T23:00:00;6;6;
76421;PMS5003;65254;52.354;13.614;2023-02-11T23:04:03;7;6;
76421;PMS5003;65254;52.354;13.614;2023-02-11T23:08:00;7;6;
76421;PMS5003;65254;52.354;13.614;2023-02-11T23:12:00;6;6;
76421;PMS5003;65254;52.354;13.614;2023-02-11T23:16:02;6;6;
76421;PMS5003;65254;52.354;13.614;2023-02-11T23:20:00;6;6;
76421;PMS5003;65254;52.354;13.614;2023-02-11T23:24:03;5;5;
76421;PMS5003;65254;52.354;13.614;2023-02-11T23:28:00;6;6;
76421;PMS5003;65254;52.354;13.614;2023-02-11T23:32:00;6;6;
76421;PMS5003;65254;52.354;13.614;2023-02-11T23:36:00;6;6;
76421;PMS5003;65254;52.354;13.614;2023-02-11T23:40:00;6;6;
76421;PMS5003;65254;52.354;13.614;2023-02-11T23:44:00;6;6;
76421;PMS5003;65254;52.354;13.614;2023-02-11T23:48:00;7;7;
76421;PMS5003;65254;52.354;13.614;2023-02-11T23:52:00;6;6;
76421;PMS5003;65254;52.354;13.614;2023-02-11T23:56:05;6;6;
